createdAt,value
2022-07-29T00:00:39.082Z,20.19
2022-07-29T00:01:35.815Z,20.35
2022-07-29T00:02:33.159Z,20.35
2022-07-29T00:03:30.025Z,20.35
2022-07-29T00:04:26.997Z,20.10
2022-07-29T00:05:23.837Z,20.29
2022-07-29T00:06:21.903Z,19.77
2022-07-29T00:07:18.816Z,20.40
2022-07-29T00:08:16.575Z,20.51
2022-07-29T00:09:13.352Z,20.50
2022-07-29T00:10:10.075Z,20.29
2022-07-29T00:11:06.872Z,20.58
2022-07-29T00:12:04.060Z,20.48
2022-07-29T00:13:00.880Z,20.23
2022-07-29T00:13:57.892Z,20.43
2022-07-29T00:14:56.265Z,20.20
2022-07-29T00:15:53.004Z,20.24
2022-07-29T00:16:49.774Z,20.37
2022-07-29T00:17:46.594Z,20.14
2022-07-29T00:18:43.336Z,20.32
2022-07-29T00:19:42.800Z,20.31
2022-07-29T00:20:42.233Z,20.35
2022-07-29T00:21:38.941Z,19.82
2022-07-29T00:22:39.049Z,20.52
2022-07-29T00:23:36.945Z,20.46
2022-07-29T00:24:33.898Z,20.62
2022-07-29T00:25:30.602Z,20.37
2022-07-29T00:26:32.751Z,20.20
2022-07-29T00:27:29.846Z,20.21
2022-07-29T00:28:26.565Z,20.26
2022-07-29T00:29:38.642Z,20.27
2022-07-29T00:30:35.381Z,20.21
2022-07-29T00:31:32.332Z,20.02
2022-07-29T00:32:29.203Z,20.28
2022-07-29T00:33:25.966Z,20.11
2022-07-29T00:34:41.443Z,20.17
2022-07-29T00:35:47.303Z,20.32
2022-07-29T00:36:44.076Z,20.15
2022-07-29T00:37:41.099Z,20.08
2022-07-29T00:38:37.875Z,19.97
2022-07-29T00:39:34.694Z,19.79
2022-07-29T00:40:31.441Z,19.87
2022-07-29T00:41:28.167Z,19.63
2022-07-29T00:42:24.985Z,19.56
2022-07-29T00:43:21.887Z,19.58
2022-07-29T00:44:18.689Z,19.38
2022-07-29T00:45:17.605Z,19.50
2022-07-29T00:46:14.360Z,19.37
2022-07-29T00:47:12.718Z,19.25
2022-07-29T00:48:09.895Z,19.22
2022-07-29T00:49:08.513Z,19.09
2022-07-29T00:50:07.957Z,18.26
2022-07-29T00:51:06.098Z,18.93
2022-07-29T00:52:05.245Z,18.77
2022-07-29T00:53:04.498Z,18.98
2022-07-29T00:54:01.243Z,18.56
2022-07-29T00:54:58.514Z,18.86
2022-07-29T00:55:56.470Z,18.87
2022-07-29T00:56:53.533Z,18.94
2022-07-29T00:57:50.610Z,19.17
2022-07-29T00:58:49.147Z,19.15
2022-07-29T00:59:45.861Z,19.04
2022-07-29T01:00:43.061Z,19.09
2022-07-29T01:01:42.314Z,19.06
2022-07-29T01:02:39.338Z,18.61
2022-07-29T01:03:36.071Z,18.32
2022-07-29T01:04:33.514Z,19.09
2022-07-29T01:05:50.289Z,19.11
2022-07-29T01:06:49.815Z,19.30
2022-07-29T01:07:48.563Z,19.36
2022-07-29T01:08:48.611Z,19.32
2022-07-29T01:09:48.214Z,19.08
2022-07-29T01:10:47.800Z,18.78
2022-07-29T01:11:48.721Z,18.99
2022-07-29T01:12:50.083Z,18.64
2022-07-29T01:13:48.667Z,19.13
2022-07-29T01:14:47.440Z,19.19
2022-07-29T01:16:04.454Z,19.14
2022-07-29T01:17:18.063Z,18.63
2022-07-29T01:18:25.141Z,19.26
2022-07-29T01:19:43.414Z,19.34
2022-07-29T01:20:55.233Z,19.35
2022-07-29T01:21:58.605Z,19.40
2022-07-29T01:23:15.967Z,19.33
2022-07-29T01:24:25.233Z,19.26
2022-07-29T01:25:24.744Z,19.33
2022-07-29T01:26:44.085Z,19.51
2022-07-29T01:27:56.634Z,19.64
2022-07-29T01:29:08.491Z,19.63
2022-07-29T01:30:06.618Z,19.70
2022-07-29T01:31:11.235Z,19.63
2022-07-29T01:32:28.216Z,19.60
2022-07-29T01:33:47.727Z,19.42
2022-07-29T01:35:04.144Z,19.53
2022-07-29T01:36:05.908Z,19.41
2022-07-29T01:37:07.276Z,19.44
2022-07-29T01:38:14.545Z,19.32
2022-07-29T01:39:33.316Z,19.20
2022-07-29T01:40:41.612Z,19.29
2022-07-29T01:41:48.663Z,19.26
2022-07-29T01:42:51.452Z,19.26
2022-07-29T01:44:03.807Z,19.14
2022-07-29T01:45:16.771Z,19.11
2022-07-29T01:46:22.430Z,19.20
2022-07-29T01:47:24.540Z,19.11
2022-07-29T01:48:28.594Z,19.09
2022-07-29T01:49:30.753Z,19.35
2022-07-29T01:50:46.462Z,19.50
2022-07-29T01:51:51.506Z,19.51
2022-07-29T01:52:57.044Z,18.89
2022-07-29T01:54:14.012Z,19.56
2022-07-29T01:55:15.912Z,19.53
2022-07-29T01:56:17.183Z,19.60
2022-07-29T01:57:18.584Z,19.42
2022-07-29T01:58:17.170Z,19.59
2022-07-29T01:59:19.923Z,19.45
2022-07-29T02:00:19.579Z,18.82
2022-07-29T02:01:18.980Z,19.57
2022-07-29T02:02:19.331Z,19.23
2022-07-29T02:03:19.505Z,19.52
2022-07-29T02:04:29.471Z,19.52
2022-07-29T02:05:29.844Z,19.43
2022-07-29T02:06:29.433Z,18.70
2022-07-29T02:07:30.349Z,19.17
2022-07-29T02:08:30.221Z,19.25
2022-07-29T02:09:28.311Z,18.89
2022-07-29T02:10:30.842Z,19.39
2022-07-29T02:11:28.282Z,19.45
2022-07-29T02:12:28.902Z,19.50
2022-07-29T02:13:29.954Z,19.48
2022-07-29T02:14:32.926Z,19.44
2022-07-29T02:15:33.413Z,19.48
2022-07-29T02:16:33.533Z,19.50
2022-07-29T02:17:36.067Z,18.75
2022-07-29T02:18:40.616Z,19.27
2022-07-29T02:19:39.757Z,19.22
2022-07-29T02:20:39.727Z,19.20
2022-07-29T02:21:36.615Z,19.21
2022-07-29T02:22:38.079Z,19.37
2022-07-29T02:23:51.087Z,19.53
2022-07-29T02:24:52.421Z,19.64
2022-07-29T02:25:52.669Z,19.44
2022-07-29T02:26:52.292Z,19.64
2022-07-29T02:27:52.362Z,19.74
2022-07-29T02:28:52.827Z,19.77
2022-07-29T02:29:51.733Z,19.88
2022-07-29T02:30:53.197Z,19.64
2022-07-29T02:31:52.899Z,19.90
2022-07-29T02:32:52.901Z,19.87
2022-07-29T02:33:52.851Z,19.86
2022-07-29T02:34:52.678Z,19.69
2022-07-29T02:35:51.055Z,19.87
2022-07-29T02:36:50.227Z,19.46
2022-07-29T02:38:09.658Z,19.73
2022-07-29T02:39:10.823Z,19.46
2022-07-29T02:40:12.392Z,19.09
2022-07-29T02:41:14.429Z,19.74
2022-07-29T02:42:16.591Z,19.48
2022-07-29T02:43:14.058Z,19.50
2022-07-29T02:44:15.264Z,19.74
2022-07-29T02:45:12.393Z,19.67
2022-07-29T02:46:28.913Z,19.59
2022-07-29T02:47:41.429Z,19.66
2022-07-29T02:48:52.696Z,19.82
2022-07-29T02:50:04.154Z,19.71
2022-07-29T02:51:08.231Z,19.83
2022-07-29T02:52:13.620Z,19.83
2022-07-29T02:53:17.279Z,19.81
2022-07-29T02:54:31.948Z,19.80
2022-07-29T02:55:41.219Z,19.87
2022-07-29T02:56:41.480Z,19.88
2022-07-29T02:57:54.971Z,19.76
2022-07-29T02:59:01.210Z,19.75
2022-07-29T03:00:04.835Z,19.87
2022-07-29T03:01:05.396Z,19.91
2022-07-29T03:02:05.900Z,19.14
2022-07-29T03:03:08.610Z,19.73
2022-07-29T03:04:06.996Z,19.76
2022-07-29T03:05:07.614Z,19.46
2022-07-29T03:06:08.238Z,19.79
2022-07-29T03:07:06.422Z,19.85
2022-07-29T03:08:06.874Z,19.45
2022-07-29T03:09:06.737Z,19.94
2022-07-29T03:10:10.839Z,19.61
2022-07-29T03:11:12.231Z,19.78
2022-07-29T03:12:09.798Z,19.60
2022-07-29T03:13:08.865Z,19.68
2022-07-29T03:14:06.951Z,19.79
2022-07-29T03:15:07.412Z,19.22
2022-07-29T03:16:06.273Z,18.98
2022-07-29T03:17:04.142Z,19.40
2022-07-29T03:18:01.569Z,18.92
2022-07-29T03:18:59.378Z,19.48
2022-07-29T03:19:56.668Z,19.61
2022-07-29T03:20:53.745Z,18.71
2022-07-29T03:21:50.526Z,18.85
2022-07-29T03:22:50.343Z,18.74
2022-07-29T03:23:47.318Z,19.42
2022-07-29T03:24:44.102Z,19.45
2022-07-29T03:25:40.918Z,19.73
2022-07-29T03:26:37.887Z,19.65
2022-07-29T03:27:35.560Z,19.28
2022-07-29T03:28:32.324Z,19.39
2022-07-29T03:29:33.981Z,19.14
2022-07-29T03:30:31.741Z,19.38
2022-07-29T03:31:29.216Z,19.47
2022-07-29T03:32:26.111Z,19.32
2022-07-29T03:33:23.242Z,19.35
2022-07-29T03:34:20.389Z,19.41
2022-07-29T03:35:21.384Z,19.36
2022-07-29T03:36:18.098Z,19.41
2022-07-29T03:37:14.807Z,19.13
2022-07-29T03:38:11.823Z,19.36
2022-07-29T03:39:11.642Z,19.06
2022-07-29T03:40:11.483Z,19.26
2022-07-29T03:41:12.633Z,19.13
2022-07-29T03:42:14.948Z,19.14
2022-07-29T03:43:16.516Z,19.35
2022-07-29T03:44:17.469Z,18.65
2022-07-29T03:45:19.307Z,19.34
2022-07-29T03:46:19.113Z,19.21
2022-07-29T03:47:23.245Z,19.28
2022-07-29T03:48:47.933Z,19.43
2022-07-29T03:49:51.430Z,19.33
2022-07-29T03:50:48.847Z,19.24
2022-07-29T03:51:46.006Z,19.29
2022-07-29T03:52:43.078Z,19.11
2022-07-29T03:53:42.408Z,18.86
2022-07-29T03:54:40.012Z,19.02
2022-07-29T03:55:47.918Z,19.36
2022-07-29T03:56:48.576Z,19.47
2022-07-29T03:57:48.244Z,19.39
2022-07-29T03:58:45.843Z,18.81
2022-07-29T03:59:44.459Z,19.56
2022-07-29T04:00:43.133Z,19.58
2022-07-29T04:01:41.210Z,18.95
2022-07-29T04:02:40.379Z,19.22
2022-07-29T04:03:37.219Z,19.23
2022-07-29T04:04:35.861Z,19.58
2022-07-29T04:05:32.704Z,19.56
2022-07-29T04:06:29.481Z,19.69
2022-07-29T04:07:26.274Z,19.69
2022-07-29T04:08:22.988Z,19.63
2022-07-29T04:09:19.936Z,19.62
2022-07-29T04:10:30.271Z,19.67
2022-07-29T04:11:28.963Z,19.57
2022-07-29T04:12:25.726Z,19.72
2022-07-29T04:13:22.632Z,19.55
2022-07-29T04:14:19.528Z,19.70
2022-07-29T04:15:16.751Z,19.70
2022-07-29T04:16:13.587Z,19.59
2022-07-29T04:17:10.658Z,19.82
2022-07-29T04:18:07.433Z,19.84
2022-07-29T04:19:04.218Z,19.91
2022-07-29T04:20:00.962Z,19.71
2022-07-29T04:21:15.572Z,19.14
2022-07-29T04:22:27.951Z,19.79
2022-07-29T04:23:52.900Z,19.57
2022-07-29T04:24:50.740Z,20.10
2022-07-29T04:25:47.597Z,20.11
2022-07-29T04:26:46.952Z,19.92
2022-07-29T04:28:01.158Z,19.99
2022-07-29T04:28:57.920Z,20.18
2022-07-29T04:29:56.347Z,19.52
2022-07-29T04:30:54.282Z,20.25
2022-07-29T04:32:01.924Z,20.12
2022-07-29T04:32:59.254Z,20.09
2022-07-29T04:33:55.977Z,20.09
2022-07-29T04:34:55.783Z,19.84
2022-07-29T04:36:18.845Z,19.83
2022-07-29T04:37:23.954Z,19.83
2022-07-29T04:38:20.806Z,19.94
2022-07-29T04:39:22.760Z,19.99
2022-07-29T04:40:20.351Z,19.92
2022-07-29T04:41:17.088Z,19.95
2022-07-29T04:42:17.523Z,20.03
2022-07-29T04:43:22.756Z,19.93
2022-07-29T04:44:20.197Z,20.13
2022-07-29T04:45:16.930Z,20.06
2022-07-29T04:46:19.570Z,20.03
2022-07-29T04:47:16.342Z,20.07
2022-07-29T04:48:13.077Z,20.10
2022-07-29T04:49:12.878Z,19.74
2022-07-29T04:50:10.864Z,20.08
2022-07-29T04:51:07.958Z,19.85
2022-07-29T04:52:05.219Z,19.88
2022-07-29T04:53:02.244Z,19.79
2022-07-29T04:53:59.777Z,19.76
2022-07-29T04:54:59.154Z,19.89
2022-07-29T04:55:55.930Z,19.74
2022-07-29T04:56:52.803Z,20.10
2022-07-29T04:57:49.623Z,19.83
2022-07-29T04:58:46.391Z,19.96
2022-07-29T04:59:43.096Z,20.02
2022-07-29T05:00:40.278Z,19.50
2022-07-29T05:01:37.041Z,20.24
2022-07-29T05:02:33.869Z,20.10
2022-07-29T05:03:31.079Z,19.40
2022-07-29T05:04:27.820Z,20.26
2022-07-29T05:05:24.580Z,20.11
2022-07-29T05:06:21.351Z,20.38
2022-07-29T05:07:18.195Z,20.43
2022-07-29T05:08:14.946Z,20.36
2022-07-29T05:09:11.755Z,20.25
2022-07-29T05:10:09.701Z,20.35
2022-07-29T05:11:12.069Z,20.45
2022-07-29T05:12:10.691Z,20.50
2022-07-29T05:13:08.741Z,20.33
2022-07-29T05:14:05.993Z,19.67
2022-07-29T05:15:02.868Z,19.51
2022-07-29T05:15:59.779Z,20.47
2022-07-29T05:16:58.062Z,20.64
2022-07-29T05:17:54.808Z,20.93
2022-07-29T05:18:51.642Z,20.36
2022-07-29T05:19:48.401Z,20.82
2022-07-29T05:20:45.177Z,20.59
2022-07-29T05:21:41.999Z,20.64
2022-07-29T05:22:38.847Z,20.72
2022-07-29T05:23:35.588Z,20.78
2022-07-29T05:24:32.329Z,20.14
2022-07-29T05:25:43.737Z,21.29
2022-07-29T05:26:41.675Z,21.24
2022-07-29T05:27:38.417Z,20.79
2022-07-29T05:28:38.853Z,20.98
2022-07-29T05:29:42.764Z,20.81
2022-07-29T05:30:42.104Z,20.78
2022-07-29T05:31:38.886Z,20.27
2022-07-29T05:32:35.622Z,20.24
2022-07-29T05:33:34.813Z,20.80
2022-07-29T05:34:33.783Z,20.95
2022-07-29T05:35:30.500Z,20.34
2022-07-29T05:36:27.920Z,20.62
2022-07-29T05:37:27.781Z,20.98
2022-07-29T05:38:24.508Z,20.84
2022-07-29T05:39:21.777Z,20.90
2022-07-29T05:40:18.645Z,20.85
2022-07-29T05:41:15.401Z,20.02
2022-07-29T05:42:12.121Z,20.88
2022-07-29T05:43:08.859Z,20.81
2022-07-29T05:44:05.808Z,20.33
2022-07-29T05:45:02.962Z,20.58
2022-07-29T05:46:00.468Z,20.75
2022-07-29T05:46:57.311Z,20.89
2022-07-29T05:47:54.173Z,20.72
2022-07-29T05:48:50.963Z,20.75
2022-07-29T05:49:48.110Z,21.09
2022-07-29T05:50:44.830Z,21.03
2022-07-29T05:51:41.607Z,21.26
2022-07-29T05:52:38.340Z,21.57
2022-07-29T05:53:35.110Z,21.53
2022-07-29T05:54:31.878Z,21.27
2022-07-29T05:55:28.606Z,20.94
2022-07-29T05:56:25.786Z,21.11
2022-07-29T05:57:24.865Z,21.16
2022-07-29T05:58:21.873Z,21.36
2022-07-29T05:59:18.698Z,21.35
2022-07-29T06:00:15.833Z,21.82
2022-07-29T06:01:12.691Z,21.71
2022-07-29T06:02:12.510Z,21.35
2022-07-29T06:03:09.288Z,22.04
2022-07-29T06:04:08.020Z,22.20
2022-07-29T06:05:05.032Z,21.71
2022-07-29T06:06:08.198Z,21.61
2022-07-29T06:07:05.580Z,21.49
2022-07-29T06:08:02.561Z,20.96
2022-07-29T06:08:59.359Z,21.19
2022-07-29T06:10:06.209Z,21.17
2022-07-29T06:11:04.154Z,21.24
2022-07-29T06:12:01.830Z,21.36
2022-07-29T06:12:58.537Z,21.45
2022-07-29T06:13:55.292Z,21.47
2022-07-29T06:14:54.192Z,21.90
2022-07-29T06:15:51.226Z,21.48
2022-07-29T06:16:47.987Z,21.98
2022-07-29T06:17:59.215Z,21.62
2022-07-29T06:19:00.553Z,21.81
2022-07-29T06:19:57.255Z,22.07
2022-07-29T06:20:54.671Z,22.06
2022-07-29T06:21:51.447Z,22.02
2022-07-29T06:22:48.291Z,21.40
2022-07-29T06:23:46.382Z,22.18
2022-07-29T06:24:44.875Z,22.25
2022-07-29T06:25:42.139Z,22.42
2022-07-29T06:26:43.274Z,22.25
2022-07-29T06:27:40.011Z,21.94
2022-07-29T06:28:36.723Z,22.07
2022-07-29T06:29:33.466Z,22.13
2022-07-29T06:30:30.709Z,22.19
2022-07-29T06:31:27.818Z,22.42
2022-07-29T06:32:27.422Z,22.51
2022-07-29T06:33:24.299Z,22.16
2022-07-29T06:34:23.016Z,22.37
2022-07-29T06:35:41.668Z,22.87
2022-07-29T06:36:38.302Z,23.16
2022-07-29T06:37:36.614Z,23.28
2022-07-29T06:38:42.062Z,23.36
2022-07-29T06:39:41.737Z,23.02
2022-07-29T06:41:01.011Z,23.26
2022-07-29T06:41:57.837Z,23.26
2022-07-29T06:42:54.680Z,23.53
2022-07-29T06:43:55.296Z,22.83
2022-07-29T06:44:53.664Z,23.01
2022-07-29T06:45:50.460Z,23.03
2022-07-29T06:46:52.719Z,23.29
2022-07-29T06:47:50.839Z,22.84
2022-07-29T06:48:51.111Z,23.76
2022-07-29T06:49:47.930Z,23.85
2022-07-29T06:50:47.108Z,23.83
2022-07-29T06:51:43.847Z,23.61
2022-07-29T06:52:41.845Z,23.37
2022-07-29T06:53:39.650Z,23.26
2022-07-29T06:54:56.035Z,22.51
2022-07-29T06:55:52.792Z,23.08
2022-07-29T06:56:49.625Z,23.46
2022-07-29T06:57:47.418Z,23.75
2022-07-29T06:58:48.092Z,24.00
2022-07-29T06:59:44.845Z,23.90
2022-07-29T07:00:41.598Z,23.94
2022-07-29T07:01:41.201Z,23.36
2022-07-29T07:02:38.110Z,24.30
2022-07-29T07:03:35.023Z,24.39
2022-07-29T07:04:31.811Z,24.17
2022-07-29T07:05:28.529Z,24.41
2022-07-29T07:06:26.157Z,24.24
2022-07-29T07:07:23.027Z,24.29
2022-07-29T07:08:20.455Z,24.22
2022-07-29T07:09:17.217Z,23.75
2022-07-29T07:10:14.058Z,24.59
2022-07-29T07:11:10.786Z,24.69
2022-07-29T07:12:08.418Z,24.64
2022-07-29T07:13:06.456Z,24.71
2022-07-29T07:14:04.350Z,25.16
2022-07-29T07:15:01.310Z,25.15
2022-07-29T07:15:58.023Z,25.30
2022-07-29T07:16:54.960Z,25.38
2022-07-29T07:17:56.209Z,25.41
2022-07-29T07:18:52.926Z,25.49
2022-07-29T07:19:49.649Z,25.56
2022-07-29T07:20:46.631Z,25.35
2022-07-29T07:21:43.479Z,25.59
2022-07-29T07:22:42.578Z,25.53
2022-07-29T07:23:40.910Z,25.84
2022-07-29T07:24:38.125Z,25.73
2022-07-29T07:25:34.887Z,25.55
2022-07-29T07:26:31.888Z,25.56
2022-07-29T07:27:28.754Z,25.67
2022-07-29T07:28:25.463Z,25.70
2022-07-29T07:29:22.171Z,25.79
2022-07-29T07:30:18.902Z,26.04
2022-07-29T07:31:15.649Z,26.14
2022-07-29T07:32:14.182Z,26.12
2022-07-29T07:33:10.916Z,25.62
2022-07-29T07:34:07.633Z,25.83
2022-07-29T07:35:06.791Z,25.94
2022-07-29T07:36:03.707Z,25.45
2022-07-29T07:37:00.421Z,25.85
2022-07-29T07:37:57.592Z,26.08
2022-07-29T07:38:54.397Z,25.80
2022-07-29T07:39:51.735Z,26.29
2022-07-29T07:40:48.699Z,25.68
2022-07-29T07:41:45.423Z,26.41
2022-07-29T07:42:42.481Z,26.33
2022-07-29T07:43:40.030Z,26.30
2022-07-29T07:44:57.267Z,26.39
2022-07-29T07:45:53.852Z,26.52
2022-07-29T07:46:50.654Z,26.07
2022-07-29T07:47:47.735Z,26.26
2022-07-29T07:48:44.574Z,26.25
2022-07-29T07:49:41.706Z,26.34
2022-07-29T07:50:38.820Z,25.87
2022-07-29T07:51:35.718Z,26.15
2022-07-29T07:52:32.635Z,25.91
2022-07-29T07:53:30.698Z,26.21
2022-07-29T07:54:27.507Z,25.26
2022-07-29T07:55:25.745Z,26.23
2022-07-29T07:56:22.651Z,26.55
2022-07-29T07:57:19.624Z,26.37
2022-07-29T07:58:16.393Z,25.55
2022-07-29T07:59:13.114Z,25.91
2022-07-29T08:00:10.269Z,26.37
2022-07-29T08:01:07.705Z,26.38
2022-07-29T08:02:05.606Z,26.50
2022-07-29T08:03:02.463Z,26.84
2022-07-29T08:03:59.270Z,26.20
2022-07-29T08:04:55.998Z,26.97
2022-07-29T08:05:52.938Z,26.55
2022-07-29T08:06:50.885Z,25.47
2022-07-29T08:07:48.067Z,26.00
2022-07-29T08:08:44.925Z,26.50
2022-07-29T08:09:41.838Z,26.14
2022-07-29T08:10:53.929Z,27.05
2022-07-29T08:11:52.193Z,26.75
2022-07-29T08:12:49.182Z,26.78
2022-07-29T08:13:45.963Z,26.96
2022-07-29T08:14:42.687Z,27.11
2022-07-29T08:15:40.640Z,26.90
2022-07-29T08:16:37.407Z,27.29
2022-07-29T08:17:35.342Z,27.14
2022-07-29T08:18:32.535Z,26.59
2022-07-29T08:19:29.340Z,27.46
2022-07-29T08:20:26.605Z,27.34
2022-07-29T08:21:25.515Z,27.14
2022-07-29T08:22:22.309Z,27.12
2022-07-29T08:23:20.099Z,26.71
2022-07-29T08:24:35.389Z,26.90
2022-07-29T08:25:32.108Z,26.63
2022-07-29T08:26:31.382Z,26.85
2022-07-29T08:27:45.499Z,27.33
2022-07-29T08:28:50.364Z,27.36
2022-07-29T08:29:47.605Z,27.05
2022-07-29T08:30:44.440Z,26.94
2022-07-29T08:31:41.925Z,27.77
2022-07-29T08:32:55.545Z,28.19
2022-07-29T08:33:52.730Z,28.53
2022-07-29T08:34:49.510Z,28.61
2022-07-29T08:35:46.650Z,28.36
2022-07-29T08:36:43.382Z,28.71
2022-07-29T08:37:40.115Z,28.25
2022-07-29T08:38:36.849Z,28.35
2022-07-29T08:39:33.596Z,28.43
2022-07-29T08:40:32.504Z,28.55
2022-07-29T08:41:29.743Z,27.95
2022-07-29T08:42:26.686Z,28.14
2022-07-29T08:43:24.142Z,28.05
2022-07-29T08:44:31.138Z,27.88
2022-07-29T08:45:30.465Z,27.96
2022-07-29T08:46:27.317Z,28.24
2022-07-29T08:47:27.268Z,28.17
2022-07-29T08:48:25.701Z,28.26
2022-07-29T08:49:22.530Z,28.17
2022-07-29T08:50:19.316Z,27.79
2022-07-29T08:51:19.433Z,28.67
2022-07-29T08:52:17.232Z,28.07
2022-07-29T08:53:16.719Z,28.11
2022-07-29T08:54:18.730Z,28.16
2022-07-29T08:55:16.739Z,27.83
2022-07-29T08:56:20.217Z,28.30
2022-07-29T08:57:18.283Z,27.99
2022-07-29T08:58:18.479Z,28.07
2022-07-29T08:59:23.067Z,28.45
2022-07-29T09:00:19.939Z,28.73
2022-07-29T09:01:21.879Z,28.75
2022-07-29T09:02:25.331Z,28.35
2022-07-29T09:03:25.701Z,28.28
2022-07-29T09:04:28.310Z,28.63
2022-07-29T09:05:27.504Z,28.66
2022-07-29T09:06:28.821Z,28.72
2022-07-29T09:07:25.558Z,28.74
2022-07-29T09:08:34.719Z,28.49
2022-07-29T09:09:31.837Z,28.88
2022-07-29T09:10:30.358Z,28.58
2022-07-29T09:11:27.826Z,28.69
2022-07-29T09:12:29.280Z,28.65
2022-07-29T09:13:26.994Z,28.48
2022-07-29T09:14:23.751Z,28.11
2022-07-29T09:15:20.586Z,28.54
2022-07-29T09:16:37.290Z,28.85
2022-07-29T09:17:45.585Z,28.93
2022-07-29T09:18:44.975Z,28.93
2022-07-29T09:19:45.458Z,29.00
2022-07-29T09:21:12.061Z,29.02
2022-07-29T09:22:10.973Z,29.11
2022-07-29T09:23:09.237Z,28.52
2022-07-29T09:24:11.782Z,28.61
2022-07-29T09:25:09.503Z,28.70
2022-07-29T09:26:07.191Z,28.92
2022-07-29T09:27:09.449Z,28.94
2022-07-29T09:28:11.591Z,29.06
2022-07-29T09:29:14.273Z,29.13
2022-07-29T09:30:14.913Z,29.00
2022-07-29T09:31:38.053Z,29.20
2022-07-29T09:32:57.109Z,29.18
2022-07-29T09:33:59.236Z,29.10
2022-07-29T09:35:15.523Z,28.94
2022-07-29T09:36:12.849Z,28.85
2022-07-29T09:37:09.686Z,28.66
2022-07-29T09:38:13.654Z,28.95
2022-07-29T09:39:13.769Z,28.46
2022-07-29T09:40:29.323Z,28.56
2022-07-29T09:41:26.322Z,29.23
2022-07-29T09:42:30.849Z,29.23
2022-07-29T09:43:27.858Z,29.40
2022-07-29T09:44:25.899Z,28.49
2022-07-29T09:45:31.073Z,29.07
2022-07-29T09:46:28.155Z,29.13
2022-07-29T09:47:43.047Z,29.18
2022-07-29T09:48:40.254Z,29.09
2022-07-29T09:49:55.527Z,29.18
2022-07-29T09:50:53.427Z,29.40
2022-07-29T09:52:00.838Z,29.53
2022-07-29T09:52:57.611Z,29.12
2022-07-29T09:53:55.287Z,28.70
2022-07-29T09:54:52.559Z,28.56
2022-07-29T09:55:53.404Z,28.98
2022-07-29T09:56:51.011Z,29.14
2022-07-29T09:57:48.293Z,28.82
2022-07-29T09:58:45.047Z,28.59
2022-07-29T09:59:57.644Z,29.47
2022-07-29T10:00:56.233Z,29.33
2022-07-29T10:01:54.427Z,29.36
2022-07-29T10:02:51.900Z,29.16
2022-07-29T10:03:53.336Z,29.30
2022-07-29T10:04:50.305Z,29.31
2022-07-29T10:06:05.434Z,29.50
2022-07-29T10:07:05.354Z,28.97
2022-07-29T10:08:03.147Z,29.12
2022-07-29T10:09:12.544Z,29.71
2022-07-29T10:10:09.606Z,29.31
2022-07-29T10:11:17.835Z,29.85
2022-07-29T10:12:15.465Z,29.68
2022-07-29T10:13:16.531Z,29.42
2022-07-29T10:14:13.614Z,29.32
2022-07-29T10:15:10.576Z,29.58
2022-07-29T10:16:07.676Z,29.86
2022-07-29T10:17:06.592Z,29.44
2022-07-29T10:18:03.404Z,30.00
2022-07-29T10:19:02.136Z,29.97
2022-07-29T10:19:58.833Z,29.73
2022-07-29T10:20:56.315Z,29.65
2022-07-29T10:21:57.730Z,29.25
2022-07-29T10:22:55.485Z,30.02
2022-07-29T10:23:53.874Z,29.83
2022-07-29T10:24:56.444Z,29.96
2022-07-29T10:25:53.351Z,28.91
2022-07-29T10:26:51.382Z,29.14
2022-07-29T10:27:49.879Z,28.99
2022-07-29T10:28:46.732Z,29.09
2022-07-29T10:29:43.432Z,28.68
2022-07-29T10:30:42.224Z,29.17
2022-07-29T10:32:14.430Z,29.65
2022-07-29T10:33:57.653Z,29.75
2022-07-29T10:35:15.487Z,30.04
2022-07-29T10:36:30.794Z,29.91
2022-07-29T10:37:51.812Z,29.97
2022-07-29T10:39:07.369Z,29.97
2022-07-29T10:40:45.730Z,30.33
2022-07-29T10:41:57.887Z,30.12
2022-07-29T10:43:00.471Z,30.17
2022-07-29T10:44:04.807Z,29.42
2022-07-29T10:45:04.387Z,30.13
2022-07-29T10:46:02.411Z,30.16
2022-07-29T10:47:00.218Z,30.04
2022-07-29T10:48:07.828Z,30.18
2022-07-29T10:49:15.442Z,30.12
2022-07-29T10:51:58.545Z,30.13
2022-07-29T10:52:59.711Z,29.24
2022-07-29T10:53:56.533Z,29.97
2022-07-29T10:54:54.977Z,30.09
2022-07-29T10:55:53.737Z,30.12
2022-07-29T10:56:50.556Z,30.21
2022-07-29T10:58:13.586Z,29.88
2022-07-29T10:59:19.314Z,30.34
2022-07-29T11:00:29.805Z,30.32
2022-07-29T11:01:37.456Z,30.64
2022-07-29T11:02:42.073Z,30.62
2022-07-29T11:03:52.101Z,30.61
2022-07-29T11:04:51.848Z,30.70
2022-07-29T11:05:59.787Z,30.47
2022-07-29T11:06:59.766Z,30.51
2022-07-29T11:09:38.411Z,30.43
2022-07-29T11:10:35.467Z,30.75
2022-07-29T11:11:33.320Z,30.39
2022-07-29T11:12:37.690Z,30.50
2022-07-29T11:13:46.549Z,30.69
2022-07-29T11:15:03.575Z,30.67
2022-07-29T11:16:00.365Z,30.53
2022-07-29T11:18:20.428Z,30.88
2022-07-29T11:19:26.229Z,30.65
2022-07-29T11:20:32.704Z,30.83
2022-07-29T11:21:49.040Z,30.89
2022-07-29T11:22:51.799Z,30.78
2022-07-29T11:23:49.844Z,30.68
2022-07-29T11:26:33.002Z,30.47
2022-07-29T11:27:40.456Z,30.35
2022-07-29T11:28:49.870Z,30.65
2022-07-29T11:29:58.527Z,30.71
2022-07-29T11:30:56.205Z,30.59
2022-07-29T11:32:10.321Z,30.71
2022-07-29T11:33:54.169Z,30.74
2022-07-29T11:34:49.458Z,30.49
2022-07-29T11:36:16.658Z,30.71
2022-07-29T11:37:13.706Z,30.70
2022-07-29T11:38:41.708Z,30.76
2022-07-29T11:39:44.513Z,30.63
2022-07-29T11:41:21.701Z,30.82
2022-07-29T11:42:32.606Z,30.86
2022-07-29T11:43:54.537Z,30.90
2022-07-29T11:45:08.411Z,30.94
2022-07-29T11:46:45.075Z,30.86
2022-07-29T11:47:57.112Z,30.91
2022-07-29T11:48:58.935Z,30.81
2022-07-29T11:50:00.023Z,30.66
2022-07-29T11:50:58.364Z,30.98
2022-07-29T11:52:05.517Z,30.90
2022-07-29T11:53:13.431Z,30.62
2022-07-29T11:54:18.002Z,30.87
2022-07-29T11:55:32.665Z,30.56
2022-07-29T11:56:33.721Z,30.68
2022-07-29T11:57:36.213Z,30.10
2022-07-29T11:58:34.637Z,30.44
2022-07-29T11:59:44.353Z,30.88
2022-07-29T12:00:43.547Z,30.21
2022-07-29T12:02:02.438Z,30.75
2022-07-29T12:03:12.135Z,30.94
2022-07-29T12:04:09.270Z,30.99
2022-07-29T12:05:10.750Z,30.85
2022-07-29T12:06:17.439Z,30.92
2022-07-29T12:07:01.306Z,30.48
2022-07-29T12:07:15.832Z,30.94
2022-07-29T12:08:14.481Z,31.19
2022-07-29T12:09:14.659Z,31.09
2022-07-29T12:10:20.189Z,30.31
2022-07-29T12:11:27.915Z,30.24
2022-07-29T12:12:25.359Z,30.36
2022-07-29T12:13:22.778Z,31.13
2022-07-29T12:14:34.673Z,30.98
2022-07-29T12:15:45.579Z,30.62
2022-07-29T12:16:43.710Z,31.00
2022-07-29T12:17:41.702Z,30.96
2022-07-29T12:18:38.602Z,31.08
2022-07-29T12:19:44.410Z,31.23
2022-07-29T12:20:42.023Z,31.25
2022-07-29T12:21:56.938Z,31.00
2022-07-29T12:22:57.145Z,31.24
2022-07-29T12:23:55.898Z,30.81
2022-07-29T12:25:31.924Z,31.52
2022-07-29T12:26:25.432Z,31.61
2022-07-29T12:27:29.189Z,31.66
2022-07-29T12:28:27.736Z,31.46
2022-07-29T12:29:35.203Z,31.46
2022-07-29T12:30:39.999Z,31.55
2022-07-29T12:31:42.442Z,30.62
2022-07-29T12:32:42.445Z,31.31
2022-07-29T12:33:39.242Z,31.20
2022-07-29T12:34:36.078Z,31.19
2022-07-29T12:35:33.130Z,31.03
2022-07-29T12:36:30.170Z,31.25
2022-07-29T12:37:41.355Z,30.99
2022-07-29T12:38:41.981Z,31.28
2022-07-29T12:39:39.914Z,31.18
2022-07-29T12:40:37.207Z,31.31
2022-07-29T12:41:34.023Z,31.28
2022-07-29T12:42:30.796Z,31.05
2022-07-29T12:43:27.601Z,31.23
2022-07-29T12:44:26.879Z,30.63
2022-07-29T12:45:30.570Z,31.32
2022-07-29T12:46:27.704Z,31.24
2022-07-29T12:47:24.786Z,30.95
2022-07-29T12:48:39.396Z,31.48
2022-07-29T12:49:38.149Z,31.45
2022-07-29T12:50:36.769Z,30.74
2022-07-29T12:51:37.399Z,30.69
2022-07-29T12:52:37.157Z,31.36
2022-07-29T12:53:34.770Z,31.17
2022-07-29T12:54:32.795Z,30.89
2022-07-29T12:55:49.783Z,31.40
2022-07-29T12:57:00.554Z,30.83
2022-07-29T12:57:59.443Z,31.27
2022-07-29T12:58:56.306Z,31.27
2022-07-29T13:00:08.731Z,31.56
2022-07-29T13:01:17.366Z,30.94
2022-07-29T13:02:23.704Z,31.46
2022-07-29T13:03:20.569Z,30.75
2022-07-29T13:04:32.624Z,31.49
2022-07-29T13:05:48.830Z,31.47
2022-07-29T13:06:50.894Z,31.29
2022-07-29T13:07:54.964Z,31.62
2022-07-29T13:09:15.134Z,31.66
2022-07-29T13:10:16.414Z,31.53
2022-07-29T13:11:39.493Z,31.43
2022-07-29T13:12:36.686Z,31.32
2022-07-29T13:13:33.438Z,31.66
2022-07-29T13:14:37.227Z,31.68